• Join FlightAware (Why Join?)
  • Login
  • US Flag 
07:30PM EST


 

Airport Tracker/Info


-or-


 

Live Flight TrackerFlight Track Log ✈ N830QS ✈ 20-Jun-2013 ✈ KDWH - KBRO

Flight Track Log - Related Links

Times and Time Zones

All times are in EDT time to prevent confusion due to time zone crossing. See the N830QS flight status page for this flight to view local times or setup timezone preferences in your user account.

Time Position Orientation Groundspeed Altitude Reporting Facility
EDT Latitude Longitude Course Direction KTS MPH feet Rate Location/Type
08:44AM 30.0500 -95.5525 232° Southwest 148 170 700  Level Houston Center
08:46AM 30.0017 -95.6233 232° Southwest 194 223 2,900 1,800 Climbing Houston Center
08:47AM 29.9706 -95.6753 235° Southwest 204 235 5,200 2,640 Climbing Houston Center
08:48AM 29.9072 -95.6925 193° South 232 267 8,600 3,060 Climbing Houston Center
08:49AM 29.8364 -95.7006 186° South 248 285 11,800 2,640 Climbing Houston Center
08:50AM 29.7764 -95.6619 151° Southeast 283 326 13,800 1,020 Climbing Houston Center
08:51AM 29.6758 -95.6247 162° South 330 380 14,000 60 Climbing Houston Center
08:52AM 29.5928 -95.6522 196° South 358 412 14,000  Level Houston Center
08:53AM 29.4911 -95.6881 197° South 350 403 14,000  Level Houston Center
08:54AM 29.3933 -95.7217 197° South 359 413 14,000  Level Houston Center
08:55AM 29.2825 -95.7725 202° Southwest 360 414 14,000  Level Houston Center
08:56AM 29.1922 -95.8194 204° Southwest 357 411 14,000  Level Houston Center
08:57AM 29.1019 -95.8639 203° Southwest 356 410 14,000 -420 Level Houston Center
08:58AM 29.0142 -95.9119 206° Southwest 353 406 13,200 -960 Descending Houston Center
08:59AM 28.9394 -95.9967 225° Southwest 355 409 12,100 -660 Descending Houston Center
09:00AM 28.8700 -96.0697 223° Southwest 343 395 11,900 -120 Descending Houston Center
09:01AM 28.7975 -96.1461 223° Southwest 351 404 11,900  Level Houston Center
09:02AM 28.7261 -96.2194 222° Southwest 346 398 11,900  Level Houston Center
09:03AM 28.6419 -96.3083 223° Southwest 343 395 11,900  Level Houston Center
09:04AM 28.5717 -96.3814 222° Southwest 342 394 11,900  Level Houston Center
09:05AM 28.5019 -96.4550 223° Southwest 341 392 12,000  Climbing Houston Center
09:06AM 28.4306 -96.5289 222° Southwest 345 397 12,000  Level Houston Center
09:07AM 28.3592 -96.6025 222° Southwest 346 398 12,000  Level Houston Center
09:09AM 28.2869 -96.6781 223° Southwest 350 403 12,000  Level Houston Center
09:09AM 28.2164 -96.7500 222° Southwest 349 402 12,000  Level Houston Center
09:10AM 28.1544 -96.8158 223° Southwest 343 395 12,000  Level Houston Center
09:11AM 28.0864 -96.8850 222° Southwest 343 395 12,000  Level Houston Center
09:12AM 28.0108 -96.9622 222° Southwest 352 405 12,000  Level Houston Center
09:13AM 27.9411 -97.0339 222° Southwest 351 404 12,000  Level Houston Center
09:14AM 27.8658 -97.1133 223° Southwest 351 404 12,000  Level Houston Center
09:15AM 27.7900 -97.1903 222° Southwest 347 399 12,000  Level Houston Center
09:16AM 27.7197 -97.2592 221° Southwest 347 399 12,000  Level Houston Center
09:17AM 27.6356 -97.2969 202° Southwest 345 397 12,000  Level Houston Center
09:18AM 27.5814 -97.2992 182° South 349 402 12,000  Level Houston Center
09:18AM 27.5369 -97.3011 182° South 342 394 12,000  Level Houston Center
09:19AM 27.4850 -97.3039 183° South 348 400 12,000  Level Houston Center
09:20AM 27.3892 -97.3083 182° South 345 397 12,000  Level Houston Center
09:21AM 27.2906 -97.3133 183° South 346 398 12,000  Level Houston Center
09:22AM 27.2019 -97.3169 182° South 337 388 12,000  Level Houston Center
09:23AM 27.1075 -97.3203 182° South 337 388 12,000  Level Houston Center
09:24AM 26.9933 -97.3261 183° South 340 391 12,000  Level Houston Center
09:25AM 26.8983 -97.3314 183° South 340 391 12,000 -60 Level Houston Center
09:26AM 26.7950 -97.3350 182° South 340 391 11,900 -60 Descending Houston Center
09:27AM 26.7036 -97.3397 183° South 331 381 11,900 -660 Level Houston Center
09:28AM 26.6036 -97.3447 183° South 332 382 10,600 -1,380 Descending Houston Center
09:29AM 26.5200 -97.3472 182° South 300 345 9,100 -1,500 Descending Houston Center
09:30AM 26.4428 -97.3811 201° Southwest 281 323 7,500 -1,320 Descending Houston Center
09:32AM 26.3556 -97.4306 207° Southwest 258 297 6,100 -1,020 Descending Houston Center
09:32AM 26.3131 -97.4542 206° Southwest 259 298 5,400 -1,020 Descending Houston Center
09:33AM 26.2456 -97.4928 207° Southwest 253 291 4,300 -840 Descending Houston Center
09:34AM 26.1842 -97.5269 207° Southwest 246 283 3,700 -540 Descending Houston Center
09:35AM 26.1181 -97.5483 196° South 248 285 3,200 -780 Descending Houston Center
09:36AM 26.0461 -97.5583 187° South 244 281 2,100 -660 Descending Houston Center
09:37AM 25.9972 -97.5228 147° Southeast 210 242 1,900 -480 Descending Houston Center
09:39AM 25.9594 -97.4842 137° Southeast 152 175 1,100 -780 Descending Houston Center
09:39AM 25.9322 -97.4506 132° Southeast 150 173 400 -540 Descending Houston Center
09:41AM 25.9058 -97.4219 136° Southeast 136 157 100 -300 Descending Houston Center